Time;durP1;ratioP1;P1;durP2;ratioP2;P2;SDS_P1;SDS_P2;PMS_P1;PMS_P2;Temp;Humidity;BMP_temperature;BMP_pressure;BME280_temperature;BME280_humidity;BME280_pressure;Samples;Min_cycle;Max_cycle;Signal;HPM_P1;HPM_P2
2021/10/11 00:00:50;;;;;;;125.38;48.60;;;12.00;99.90;;;;;;2108587;28;20020;-66
2021/10/11 00:01:51;;;;;;;114.07;48.10;;;12.10;99.90;;;;;;2112083;28;20059;-67
2021/10/11 00:02:51;;;;;;;108.15;46.47;;;12.10;99.90;;;;;;2111834;28;20024;-67
2021/10/11 00:03:52;;;;;;;104.90;46.72;;;12.10;99.90;;;;;;2111799;28;20138;-67
2021/10/11 00:04:53;;;;;;;112.25;46.70;;;12.10;99.90;;;;;;2104025;28;20380;-67
2021/10/11 00:05:53;;;;;;;107.07;47.47;;;12.10;99.90;;;;;;2102885;28;20028;-67
2021/10/11 00:06:54;;;;;;;104.28;45.83;;;12.00;99.90;;;;;;2111624;28;20028;-67
2021/10/11 00:07:55;;;;;;;100.50;44.42;;;12.00;99.90;;;;;;2125539;27;20019;-67
2021/10/11 00:08:56;;;;;;;94.88;43.03;;;11.90;99.90;;;;;;2106911;28;20081;-67
2021/10/11 00:09:57;;;;;;;105.30;45.72;;;11.80;99.90;;;;;;2103046;28;20058;-66
2021/10/11 00:10:58;;;;;;;106.82;45.38;;;11.80;99.90;;;;;;2106074;28;20030;-66
2021/10/11 00:11:58;;;;;;;104.45;43.03;;;11.80;99.90;;;;;;2112347;28;20445;-67
2021/10/11 00:12:59;;;;;;;104.15;43.42;;;11.70;99.90;;;;;;2108068;28;20078;-67
2021/10/11 00:14:00;;;;;;;101.20;43.67;;;11.70;99.90;;;;;;2103398;28;20600;-67
2021/10/11 00:15:01;;;;;;;101.38;42.08;;;11.60;99.90;;;;;;2105719;28;20103;-67
2021/10/11 00:16:02;;;;;;;95.78;43.95;;;11.60;99.90;;;;;;2103799;28;20020;-66
2021/10/11 00:17:03;;;;;;;100.20;43.78;;;11.60;99.90;;;;;;2097605;28;20543;-66
2021/10/11 00:18:05;;;;;;;95.38;41.35;;;11.50;99.90;;;;;;2102465;28;20020;-66
2021/10/11 00:19:06;;;;;;;84.18;40.38;;;11.50;99.90;;;;;;2106546;28;20747;-67
2021/10/11 00:20:07;;;;;;;104.97;44.03;;;11.50;99.90;;;;;;2097697;28;20032;-66
2021/10/11 00:21:08;;;;;;;103.90;42.70;;;11.40;99.90;;;;;;2099864;28;20031;-67
2021/10/11 00:22:09;;;;;;;98.40;42.13;;;11.40;99.90;;;;;;2106374;28;20027;-67
2021/10/11 00:23:11;;;;;;;92.97;42.08;;;11.40;99.90;;;;;;2106377;28;20012;-66
2021/10/11 00:24:12;;;;;;;111.00;44.58;;;11.50;99.90;;;;;;2110046;28;20131;-67
2021/10/11 00:25:13;;;;;;;111.20;45.63;;;11.70;99.90;;;;;;2106421;28;20415;-66
2021/10/11 00:26:14;;;;;;;113.00;47.17;;;11.80;99.90;;;;;;2105801;28;20016;-66
2021/10/11 00:27:14;;;;;;;132.20;47.63;;;11.90;99.90;;;;;;2102036;28;21141;-66
2021/10/11 00:28:15;;;;;;;117.68;45.42;;;12.00;99.90;;;;;;2102315;28;20024;-67
2021/10/11 00:29:16;;;;;;;135.90;47.75;;;12.10;99.90;;;;;;2105549;28;20024;-67
2021/10/11 00:30:16;;;;;;;134.15;46.38;;;12.10;99.90;;;;;;2098168;28;20420;-66
2021/10/11 00:31:17;;;;;;;124.40;46.05;;;12.20;99.90;;;;;;2099354;28;20377;-67
2021/10/11 00:32:18;;;;;;;167.25;50.55;;;12.30;99.90;;;;;;2106500;28;20028;-66
2021/10/11 00:33:18;;;;;;;117.45;44.15;;;12.40;99.90;;;;;;2099293;28;20028;-67
2021/10/11 00:34:19;;;;;;;138.45;46.40;;;12.50;99.90;;;;;;2097838;28;20487;-66
2021/10/11 00:35:20;;;;;;;108.80;43.17;;;12.60;99.90;;;;;;2103778;28;20575;-67
2021/10/11 00:36:20;;;;;;;113.53;43.75;;;12.60;99.90;;;;;;2106298;28;20028;-67
2021/10/11 00:37:21;;;;;;;134.98;46.35;;;12.70;99.90;;;;;;2106525;28;20104;-66
2021/10/11 00:38:22;;;;;;;139.15;45.35;;;12.80;99.90;;;;;;2106171;28;20024;-66
2021/10/11 00:39:22;;;;;;;123.03;43.65;;;12.80;99.90;;;;;;2106439;28;20423;-66
2021/10/11 00:40:24;;;;;;;136.90;45.30;;;12.80;99.90;;;;;;2106308;28;20419;-66
2021/10/11 00:41:27;;;;;;;133.35;45.97;;;12.80;99.90;;;;;;2106275;28;20027;-66
2021/10/11 00:42:28;;;;;;;147.32;46.58;;;12.80;99.90;;;;;;2103059;28;20140;-66
2021/10/11 00:43:29;;;;;;;162.75;46.55;;;12.80;99.90;;;;;;2102005;28;20066;-67
2021/10/11 00:44:29;;;;;;;109.50;42.30;;;12.80;99.90;;;;;;2105573;28;20020;-66
2021/10/11 00:45:30;;;;;;;113.63;43.00;;;12.80;99.90;;;;;;2097811;28;20031;-66
2021/10/11 00:46:31;;;;;;;119.07;45.25;;;12.80;99.90;;;;;;2097644;28;20473;-66
2021/10/11 00:47:32;;;;;;;166.27;47.28;;;12.80;99.90;;;;;;2097939;28;20430;-66
2021/10/11 00:48:33;;;;;;;147.65;45.17;;;12.90;99.90;;;;;;2098019;28;20021;-66
2021/10/11 00:49:34;;;;;;;96.40;42.28;;;12.90;99.90;;;;;;2098051;28;20070;-66
2021/10/11 00:50:35;;;;;;;95.47;42.05;;;12.90;99.90;;;;;;2097938;28;20031;-66
2021/10/11 00:51:35;;;;;;;106.15;43.03;;;13.00;99.90;;;;;;2097194;28;20079;-66
2021/10/11 00:52:37;;;;;;;104.40;43.22;;;13.00;99.90;;;;;;2105654;28;20020;-67
2021/10/11 00:53:38;;;;;;;101.85;42.22;;;13.00;99.90;;;;;;2105566;28;20107;-66
2021/10/11 00:54:39;;;;;;;133.88;45.30;;;13.00;99.90;;;;;;2106159;28;20365;-66
2021/10/11 00:55:40;;;;;;;106.28;43.72;;;13.00;99.90;;;;;;2099993;28;20036;-66
2021/10/11 00:56:41;;;;;;;102.53;41.67;;;13.00;99.90;;;;;;2098131;28;20051;-66
2021/10/11 00:57:42;;;;;;;118.35;43.47;;;13.00;99.90;;;;;;2106269;28;20032;-66
2021/10/11 00:58:43;;;;;;;102.75;43.83;;;13.00;99.90;;;;;;2103028;28;20048;-66
2021/10/11 00:59:44;;;;;;;109.95;42.22;;;13.10;99.90;;;;;;2097242;28;20028;-66
2021/10/11 01:00:44;;;;;;;112.25;43.97;;;13.10;99.90;;;;;;2096958;28;20974;-66
2021/10/11 01:01:45;;;;;;;99.35;41.55;;;13.10;99.90;;;;;;2099007;28;20048;-66
2021/10/11 01:02:46;;;;;;;98.55;42.60;;;13.10;99.90;;;;;;2102428;28;20514;-66
2021/10/11 01:03:47;;;;;;;115.57;43.83;;;13.10;99.90;;;;;;2106409;28;20020;-66
2021/10/11 01:04:47;;;;;;;103.43;42.35;;;13.10;99.90;;;;;;2105742;28;20026;-66
2021/10/11 01:05:48;;;;;;;134.43;46.30;;;13.00;99.90;;;;;;2105865;28;20027;-66
2021/10/11 01:06:49;;;;;;;122.65;43.88;;;13.00;99.90;;;;;;2106285;28;20111;-66
2021/10/11 01:07:50;;;;;;;114.43;44.80;;;13.00;99.90;;;;;;2100449;28;20058;-66
2021/10/11 01:08:51;;;;;;;156.27;45.03;;;13.00;99.90;;;;;;2105876;28;20020;-66
2021/10/11 01:09:51;;;;;;;154.30;46.88;;;13.00;99.90;;;;;;2105400;28;20032;-66
2021/10/11 01:10:52;;;;;;;116.68;45.50;;;13.00;99.90;;;;;;2104183;28;20069;-66
2021/10/11 01:11:54;;;;;;;145.75;46.10;;;13.00;99.90;;;;;;2097158;28;20033;-66
2021/10/11 01:12:54;;;;;;;114.82;43.80;;;13.00;99.90;;;;;;2101756;28;20023;-66
2021/10/11 01:13:55;;;;;;;110.07;42.42;;;13.00;99.90;;;;;;2106288;28;20110;-66
2021/10/11 01:14:56;;;;;;;143.48;44.90;;;13.00;99.90;;;;;;2097332;28;20024;-66
2021/10/11 01:15:56;;;;;;;106.80;43.05;;;12.90;99.90;;;;;;2097277;28;20036;-66
2021/10/11 01:16:57;;;;;;;106.90;43.60;;;12.90;99.90;;;;;;2105132;28;20042;-66
2021/10/11 01:17:58;;;;;;;135.05;44.55;;;12.90;99.90;;;;;;2101013;28;20032;-66
2021/10/11 01:18:59;;;;;;;137.48;44.35;;;12.90;99.90;;;;;;2105168;28;20054;-66
2021/10/11 01:20:01;;;;;;;145.05;45.97;;;12.80;99.90;;;;;;2103966;28;20054;-66
2021/10/11 01:21:01;;;;;;;106.90;45.00;;;12.90;99.90;;;;;;2105419;28;20028;-66
2021/10/11 01:22:02;;;;;;;196.27;50.20;;;12.90;99.90;;;;;;2106151;28;20030;-66
2021/10/11 01:23:03;;;;;;;146.32;44.67;;;12.90;99.90;;;;;;2105613;28;20012;-66
2021/10/11 01:24:04;;;;;;;146.05;45.80;;;12.90;99.90;;;;;;2103379;28;20023;-66
2021/10/11 01:25:08;;;;;;;110.68;42.78;;;12.90;99.90;;;;;;2099469;28;20477;-66
2021/10/11 01:26:08;;;;;;;128.82;44.67;;;12.90;99.90;;;;;;2102033;28;20019;-66
2021/10/11 01:27:09;;;;;;;136.48;46.20;;;13.00;99.90;;;;;;2106000;28;20008;-66
2021/10/11 01:28:10;;;;;;;110.60;43.35;;;12.90;99.90;;;;;;2105995;28;20045;-66
2021/10/11 01:29:13;;;;;;;140.02;45.50;;;13.00;99.90;;;;;;2106279;28;20024;-66
2021/10/11 01:30:15;;;;;;;130.90;43.75;;;13.00;99.90;;;;;;2098958;28;20018;-66
2021/10/11 01:31:18;;;;;;;166.55;46.45;;;13.00;99.90;;;;;;2096463;28;20017;-66
2021/10/11 01:32:18;;;;;;;177.02;45.28;;;13.10;99.90;;;;;;2102676;28;20484;-67
2021/10/11 01:33:19;;;;;;;154.18;43.45;;;13.10;99.90;;;;;;2105055;28;20055;-66
2021/10/11 01:34:19;;;;;;;181.13;45.28;;;13.10;99.90;;;;;;2097009;28;20115;-66
2021/10/11 01:35:21;;;;;;;122.28;43.30;;;13.10;99.90;;;;;;2104902;28;20020;-66
2021/10/11 01:36:21;;;;;;;194.13;45.60;;;13.10;99.90;;;;;;2105042;28;20032;-66
2021/10/11 01:37:22;;;;;;;138.38;43.17;;;13.10;99.90;;;;;;2094964;28;20051;-66
2021/10/11 01:38:23;;;;;;;127.68;42.28;;;13.10;99.90;;;;;;2105788;28;20013;-67
2021/10/11 01:39:24;;;;;;;115.55;41.88;;;13.20;99.90;;;;;;2107458;28;20020;-67
2021/10/11 01:40:24;;;;;;;212.93;48.47;;;13.20;99.90;;;;;;2100493;28;20095;-67
2021/10/11 01:41:26;;;;;;;145.73;43.97;;;13.20;99.90;;;;;;2097929;28;20025;-66
2021/10/11 01:42:27;;;;;;;124.85;44.22;;;13.20;99.90;;;;;;2096874;28;20026;-66
2021/10/11 01:43:27;;;;;;;158.63;46.92;;;13.20;99.90;;;;;;2099692;28;20028;-66
2021/10/11 01:44:28;;;;;;;181.65;48.80;;;13.20;99.90;;;;;;2104803;28;20027;-66
2021/10/11 01:45:29;;;;;;;124.37;44.17;;;13.30;99.90;;;;;;2097646;28;20025;-66
2021/10/11 01:46:30;;;;;;;147.02;46.70;;;13.30;99.90;;;;;;2097519;28;20596;-66
2021/10/11 01:47:31;;;;;;;314.40;54.22;;;13.30;99.90;;;;;;2100610;28;20499;-66
2021/10/11 01:48:31;;;;;;;283.90;52.60;;;13.30;99.90;;;;;;2100626;28;20028;-66
2021/10/11 01:49:32;;;;;;;297.75;54.60;;;13.30;99.90;;;;;;2106033;28;20460;-66
2021/10/11 01:50:33;;;;;;;215.55;48.03;;;13.30;99.90;;;;;;2105805;28;20065;-66
2021/10/11 01:51:34;;;;;;;198.93;49.55;;;13.30;99.90;;;;;;2105278;28;20027;-67
2021/10/11 01:52:36;;;;;;;138.95;46.50;;;13.30;99.90;;;;;;2100725;28;20605;-66
2021/10/11 01:53:37;;;;;;;357.58;59.15;;;13.30;99.90;;;;;;2104934;28;20075;-67
2021/10/11 01:54:37;;;;;;;142.00;44.83;;;13.30;99.90;;;;;;2105640;28;20043;-66
2021/10/11 01:55:38;;;;;;;127.07;43.53;;;13.30;99.90;;;;;;2104896;28;20111;-66
2021/10/11 01:56:39;;;;;;;132.40;44.78;;;13.30;99.90;;;;;;2098595;28;20034;-66
2021/10/11 01:57:39;;;;;;;125.03;42.72;;;13.30;99.90;;;;;;2099270;28;20059;-66
2021/10/11 01:58:40;;;;;;;122.40;42.90;;;13.30;99.90;;;;;;2102949;28;20753;-66
2021/10/11 01:59:41;;;;;;;133.52;42.17;;;13.30;99.90;;;;;;2106044;28;20623;-66
2021/10/11 02:00:41;;;;;;;121.90;42.35;;;13.40;99.90;;;;;;2103465;28;20435;-66
2021/10/11 02:01:42;;;;;;;135.95;44.10;;;13.40;99.90;;;;;;2096875;28;20736;-66
2021/10/11 02:02:43;;;;;;;117.57;41.10;;;13.40;99.90;;;;;;2100902;28;20085;-66
2021/10/11 02:03:43;;;;;;;123.47;42.28;;;13.40;99.90;;;;;;2097768;28;20021;-66
2021/10/11 02:04:44;;;;;;;126.78;40.50;;;13.40;99.90;;;;;;2103822;28;20070;-66
2021/10/11 02:05:45;;;;;;;130.70;40.53;;;13.40;99.90;;;;;;2097413;28;20017;-66
2021/10/11 02:06:45;;;;;;;123.82;39.60;;;13.40;99.90;;;;;;2096730;28;20028;-66
2021/10/11 02:07:46;;;;;;;115.70;39.15;;;13.40;99.90;;;;;;2100352;28;20099;-66
2021/10/11 02:08:47;;;;;;;114.70;38.90;;;13.40;99.90;;;;;;2105267;28;20028;-66
2021/10/11 02:09:48;;;;;;;146.77;42.35;;;13.40;99.90;;;;;;2100353;28;20031;-66
2021/10/11 02:10:49;;;;;;;114.50;38.38;;;13.30;99.90;;;;;;2103175;28;20663;-65
2021/10/11 02:11:50;;;;;;;124.07;40.55;;;13.30;99.90;;;;;;2098661;28;20054;-65
2021/10/11 02:12:51;;;;;;;111.53;42.10;;;13.30;99.90;;;;;;2100149;28;20063;-66
2021/10/11 02:13:51;;;;;;;121.15;41.38;;;13.30;99.90;;;;;;2104284;28;20115;-66
2021/10/11 02:14:52;;;;;;;112.47;39.63;;;13.20;99.90;;;;;;2097205;28;20547;-66
2021/10/11 02:15:53;;;;;;;116.03;40.55;;;13.20;99.90;;;;;;2097491;28;20119;-67
2021/10/11 02:16:54;;;;;;;108.45;40.17;;;13.20;99.90;;;;;;2104267;28;20032;-67
2021/10/11 02:17:56;;;;;;;123.38;41.05;;;13.10;99.90;;;;;;2103584;28;20075;-66
2021/10/11 02:18:57;;;;;;;107.20;39.20;;;13.10;99.90;;;;;;2103586;28;20492;-66
2021/10/11 02:19:58;;;;;;;113.85;39.60;;;13.10;99.90;;;;;;2098064;28;20049;-67
2021/10/11 02:20:58;;;;;;;100.18;39.45;;;13.00;99.90;;;;;;2104274;28;20024;-67
2021/10/11 02:22:00;;;;;;;108.20;39.40;;;13.10;99.90;;;;;;2097448;28;20025;-67
2021/10/11 02:23:00;;;;;;;103.20;39.45;;;13.00;99.90;;;;;;2101048;28;20020;-67
2021/10/11 02:24:01;;;;;;;115.57;41.38;;;13.00;99.90;;;;;;2109067;28;20048;-66
2021/10/11 02:25:02;;;;;;;126.70;40.97;;;13.00;99.90;;;;;;2102339;28;20025;-68
2021/10/11 02:26:03;;;;;;;108.20;39.95;;;13.00;99.90;;;;;;2098995;28;20016;-67
2021/10/11 02:27:04;;;;;;;114.05;40.72;;;13.00;99.90;;;;;;2106970;28;20047;-66
2021/10/11 02:28:04;;;;;;;136.10;41.67;;;12.90;99.90;;;;;;2100061;28;20020;-66
2021/10/11 02:29:05;;;;;;;133.80;42.20;;;12.90;99.90;;;;;;2106347;28;20016;-67
2021/10/11 02:30:08;;;;;;;122.85;42.00;;;12.90;99.90;;;;;;2099323;28;20525;-66
2021/10/11 02:31:08;;;;;;;134.40;43.40;;;12.90;99.90;;;;;;2097162;28;20031;-66
2021/10/11 02:32:09;;;;;;;144.90;42.90;;;12.80;99.90;;;;;;2097222;28;20020;-66
2021/10/11 02:33:10;;;;;;;130.30;41.97;;;12.90;99.90;;;;;;2100211;28;20028;-67
2021/10/11 02:34:11;;;;;;;131.88;41.63;;;12.80;99.90;;;;;;2102124;28;20050;-66
2021/10/11 02:35:12;;;;;;;151.73;43.47;;;12.80;99.90;;;;;;2103953;28;20031;-67
2021/10/11 02:36:13;;;;;;;128.73;41.67;;;12.80;99.90;;;;;;2098462;28;20012;-66
2021/10/11 02:37:14;;;;;;;141.02;42.67;;;12.80;99.90;;;;;;2096501;28;20626;-67
2021/10/11 02:38:14;;;;;;;150.18;43.58;;;12.70;99.90;;;;;;2099500;28;20013;-66
2021/10/11 02:39:15;;;;;;;120.78;42.00;;;12.70;99.90;;;;;;2102550;28;20711;-66
2021/10/11 02:40:16;;;;;;;145.60;41.22;;;12.70;99.90;;;;;;2104161;28;20044;-67
2021/10/11 02:41:17;;;;;;;121.93;42.65;;;12.70;99.90;;;;;;2104035;28;20049;-66
2021/10/11 02:42:17;;;;;;;128.93;40.92;;;12.70;99.90;;;;;;2104604;28;20016;-66
2021/10/11 02:43:18;;;;;;;140.40;41.67;;;12.70;99.90;;;;;;2102872;28;20602;-67
2021/10/11 02:44:19;;;;;;;121.63;41.75;;;12.70;99.90;;;;;;2097239;28;20470;-67
2021/10/11 02:45:20;;;;;;;99.88;38.50;;;12.70;99.90;;;;;;2102039;28;20141;-67
2021/10/11 02:46:20;;;;;;;150.25;43.85;;;12.70;99.90;;;;;;2101546;28;20120;-67
2021/10/11 02:47:21;;;;;;;138.15;42.05;;;12.60;99.90;;;;;;2102610;28;20028;-67
2021/10/11 02:48:22;;;;;;;114.78;40.05;;;12.60;99.90;;;;;;2102554;28;20086;-67
2021/10/11 02:49:22;;;;;;;124.78;40.85;;;12.60;99.90;;;;;;2097214;28;20098;-67
2021/10/11 02:50:23;;;;;;;109.65;39.78;;;12.60;99.90;;;;;;2101558;28;20057;-66
2021/10/11 02:51:24;;;;;;;134.85;43.35;;;12.60;99.90;;;;;;2101967;28;20137;-68
2021/10/11 02:52:28;;;;;;;148.77;44.67;;;12.60;99.90;;;;;;2104029;28;20024;-67
2021/10/11 02:53:28;;;;;;;127.85;41.42;;;12.60;99.90;;;;;;2100216;28;20369;-67
2021/10/11 02:54:29;;;;;;;122.00;40.55;;;12.60;99.90;;;;;;2105548;28;20070;-67
2021/10/11 02:55:30;;;;;;;143.70;42.53;;;12.60;99.90;;;;;;2104859;28;20027;-66
2021/10/11 02:56:30;;;;;;;97.30;38.55;;;12.60;99.90;;;;;;2102151;28;20503;-66
2021/10/11 02:57:31;;;;;;;149.73;42.53;;;12.60;99.90;;;;;;2100687;28;20541;-67
2021/10/11 02:58:32;;;;;;;137.77;41.95;;;12.70;99.90;;;;;;2096661;28;20020;-67
2021/10/11 02:59:33;;;;;;;136.05;41.05;;;12.70;99.90;;;;;;2097159;28;20025;-66
2021/10/11 03:00:33;;;;;;;229.60;46.95;;;12.70;99.90;;;;;;2096725;28;20042;-67
2021/10/11 03:01:34;;;;;;;277.48;47.28;;;12.80;99.90;;;;;;2100511;28;20762;-66
2021/10/11 03:02:35;;;;;;;297.42;50.35;;;12.70;99.90;;;;;;2104668;28;20165;-67
2021/10/11 03:03:36;;;;;;;313.52;51.67;;;12.80;99.90;;;;;;2105109;28;20040;-67
2021/10/11 03:04:37;;;;;;;215.30;47.83;;;12.80;99.90;;;;;;2098773;28;20013;-67
2021/10/11 03:05:37;;;;;;;182.55;45.45;;;12.80;99.90;;;;;;2096872;28;20032;-67
2021/10/11 03:06:38;;;;;;;90.22;38.63;;;12.80;99.90;;;;;;2095987;28;20017;-67
2021/10/11 03:07:39;;;;;;;400.08;55.38;;;12.80;99.90;;;;;;2096611;28;20021;-67
2021/10/11 03:08:40;;;;;;;208.23;44.40;;;12.80;99.90;;;;;;2096349;28;20538;-67
2021/10/11 03:09:40;;;;;;;146.57;41.38;;;12.80;99.90;;;;;;2102040;28;20064;-66
2021/10/11 03:10:41;;;;;;;236.82;46.25;;;12.80;99.90;;;;;;2098484;28;20027;-67
2021/10/11 03:11:41;;;;;;;208.63;47.92;;;12.70;99.90;;;;;;2096700;28;20082;-67
2021/10/11 03:12:42;;;;;;;177.80;45.92;;;12.70;99.90;;;;;;2100176;28;20739;-67
2021/10/11 03:13:43;;;;;;;169.45;44.70;;;12.70;99.90;;;;;;2105492;28;20052;-66
2021/10/11 03:14:44;;;;;;;192.77;45.33;;;12.70;99.90;;;;;;2104931;28;20099;-66
2021/10/11 03:15:44;;;;;;;176.00;45.28;;;12.70;99.90;;;;;;2105338;28;20055;-66
2021/10/11 03:16:45;;;;;;;118.10;41.28;;;12.60;99.90;;;;;;2105170;28;20024;-67
2021/10/11 03:17:46;;;;;;;190.95;45.45;;;12.60;99.90;;;;;;2105054;28;20032;-67
2021/10/11 03:18:47;;;;;;;354.00;53.67;;;12.60;99.90;;;;;;2102800;28;20028;-67
2021/10/11 03:19:48;;;;;;;214.60;46.45;;;12.60;99.90;;;;;;2096819;28;20530;-67
2021/10/11 03:20:50;;;;;;;151.75;43.60;;;12.50;99.90;;;;;;2096866;28;20025;-66
2021/10/11 03:21:51;;;;;;;;;;;12.50;99.90;;;;;;2105441;28;20024;-67
2021/10/11 03:22:51;;;;;;;136.77;43.42;;;12.50;99.90;;;;;;2104440;28;19908;-67
2021/10/11 03:23:52;;;;;;;139.23;46.25;;;12.40;99.90;;;;;;2106187;28;20023;-67
2021/10/11 03:24:54;;;;;;;113.40;43.60;;;12.40;99.90;;;;;;2108691;28;20012;-67
2021/10/11 03:25:54;;;;;;;134.93;44.08;;;12.40;99.90;;;;;;2105331;28;20020;-67
2021/10/11 03:26:55;;;;;;;114.85;42.35;;;12.40;99.90;;;;;;2102472;28;20029;-67
2021/10/11 03:27:56;;;;;;;140.38;44.67;;;12.40;99.90;;;;;;2097886;28;20084;-67
2021/10/11 03:28:56;;;;;;;139.40;45.33;;;12.30;99.90;;;;;;2105299;28;20477;-67
2021/10/11 03:29:57;;;;;;;110.70;42.42;;;12.40;99.90;;;;;;2096411;28;20013;-67
2021/10/11 03:30:58;;;;;;;120.15;43.70;;;12.40;99.90;;;;;;2096992;28;20051;-67
2021/10/11 03:31:58;;;;;;;134.50;45.75;;;12.40;99.90;;;;;;2103899;28;20046;-67
2021/10/11 03:32:59;;;;;;;105.68;40.97;;;12.40;99.90;;;;;;2105290;28;20095;-67
2021/10/11 03:34:00;;;;;;;136.30;45.15;;;12.40;99.90;;;;;;2105466;28;20030;-67
2021/10/11 03:35:00;;;;;;;115.70;41.78;;;12.40;99.90;;;;;;2104849;28;20537;-67
2021/10/11 03:36:01;;;;;;;107.72;43.10;;;12.50;99.90;;;;;;2105290;28;20046;-67
2021/10/11 03:37:02;;;;;;;110.47;42.17;;;12.60;99.90;;;;;;2095077;28;20036;-68
2021/10/11 03:38:04;;;;;;;104.15;42.58;;;12.70;99.90;;;;;;2096240;28;20492;-67
2021/10/11 03:39:06;;;;;;;102.93;40.80;;;12.80;99.90;;;;;;2103942;28;20577;-67
2021/10/11 03:40:08;;;;;;;104.10;42.28;;;12.80;99.90;;;;;;2100844;28;20028;-67
2021/10/11 03:41:08;;;;;;;110.00;42.88;;;12.80;99.90;;;;;;2096967;28;20032;-67
2021/10/11 03:42:09;;;;;;;99.78;40.70;;;12.80;99.90;;;;;;2096953;28;20102;-67
2021/10/11 03:43:10;;;;;;;103.50;41.65;;;12.80;99.90;;;;;;2103902;28;20135;-67
2021/10/11 03:44:10;;;;;;;111.07;40.88;;;12.80;99.90;;;;;;2104566;28;20570;-68
2021/10/11 03:45:11;;;;;;;102.95;40.53;;;12.80;99.90;;;;;;2105122;28;20035;-67
2021/10/11 03:46:12;;;;;;;100.05;39.60;;;12.90;99.90;;;;;;2105235;28;20070;-67
2021/10/11 03:47:13;;;;;;;104.35;41.00;;;12.90;99.90;;;;;;2104407;28;20052;-67
2021/10/11 03:48:14;;;;;;;111.65;42.75;;;12.90;99.90;;;;;;2102054;28;20008;-67
2021/10/11 03:49:15;;;;;;;100.82;39.55;;;12.90;99.90;;;;;;2100205;28;20020;-67
2021/10/11 03:50:16;;;;;;;97.88;40.97;;;12.80;99.90;;;;;;2101636;28;20061;-67
2021/10/11 03:51:16;;;;;;;103.97;41.17;;;12.80;99.90;;;;;;2106898;28;20425;-68
2021/10/11 03:52:17;;;;;;;98.20;40.25;;;12.80;99.90;;;;;;2100032;28;20017;-68
2021/10/11 03:53:18;;;;;;;98.60;40.42;;;12.80;99.90;;;;;;2098274;28;20028;-68
2021/10/11 03:54:19;;;;;;;100.72;40.42;;;12.80;99.90;;;;;;2098554;28;20017;-67
2021/10/11 03:55:19;;;;;;;104.68;40.95;;;12.80;99.90;;;;;;2098276;28;20029;-68
2021/10/11 03:56:21;;;;;;;95.93;39.58;;;12.80;99.90;;;;;;2098382;28;20016;-67
2021/10/11 03:57:22;;;;;;;96.78;39.15;;;12.80;99.90;;;;;;2095537;28;20032;-67
2021/10/11 03:58:22;;;;;;;92.97;38.58;;;12.80;99.90;;;;;;2103513;28;20036;-68
2021/10/11 03:59:23;;;;;;;88.55;36.75;;;12.80;99.90;;;;;;2106629;28;20019;-67
2021/10/11 04:00:24;;;;;;;85.72;36.88;;;12.70;99.90;;;;;;2105135;28;20016;-68
2021/10/11 04:01:24;;;;;;;84.57;36.40;;;12.70;99.90;;;;;;2105774;28;20127;-67
2021/10/11 04:02:26;;;;;;;77.68;34.55;;;12.60;99.90;;;;;;2105352;28;20024;-68
2021/10/11 04:03:27;;;;;;;88.78;37.08;;;12.60;99.90;;;;;;2106501;28;20066;-67
2021/10/11 04:04:27;;;;;;;88.90;36.05;;;12.60;99.90;;;;;;2102370;28;20545;-67
2021/10/11 04:05:28;;;;;;;83.63;35.30;;;12.60;99.90;;;;;;2106723;28;20111;-67
2021/10/11 04:06:29;;;;;;;78.47;35.38;;;12.70;99.90;;;;;;2106339;28;20050;-67
2021/10/11 04:07:30;;;;;;;78.57;34.42;;;12.60;99.90;;;;;;2105992;28;20620;-67
2021/10/11 04:08:40;;;;;;;85.45;35.20;;;12.60;99.90;;;;;;2106757;28;20450;-67
2021/10/11 04:09:43;;;;;;;79.15;33.83;;;12.70;99.90;;;;;;2106234;28;20778;-68
2021/10/11 04:12:05;;;;;;;;;;;12.60;99.90;;;;;;2104333;28;20142;-68
2021/10/11 04:13:05;;;;;;;79.82;32.40;;;12.70;99.90;;;;;;2103510;28;19935;-68
2021/10/11 04:14:06;;;;;;;82.72;32.95;;;12.70;99.90;;;;;;2106597;28;20019;-67
2021/10/11 04:15:08;;;;;;;75.90;33.63;;;12.70;99.90;;;;;;2106606;28;20503;-67
2021/10/11 04:16:09;;;;;;;72.50;33.20;;;12.60;99.90;;;;;;2106062;28;20103;-68
2021/10/11 04:17:10;;;;;;;83.30;34.47;;;12.60;99.90;;;;;;2101275;28;20398;-67
2021/10/11 04:18:11;;;;;;;74.95;32.67;;;12.60;99.90;;;;;;2098746;28;20028;-67
2021/10/11 04:19:12;;;;;;;81.60;34.53;;;12.60;99.90;;;;;;2102940;28;20497;-67
2021/10/11 04:20:12;;;;;;;76.80;33.88;;;12.60;99.90;;;;;;2103327;28;20099;-67
2021/10/11 04:21:13;;;;;;;77.60;33.13;;;12.60;99.90;;;;;;2105080;28;20069;-68
2021/10/11 04:22:14;;;;;;;79.05;34.20;;;12.60;99.90;;;;;;2105607;28;20091;-67
2021/10/11 04:23:14;;;;;;;76.85;33.65;;;12.50;99.90;;;;;;2102589;28;20095;-67
2021/10/11 04:24:15;;;;;;;80.22;33.97;;;12.50;99.90;;;;;;2109890;28;20024;-67
2021/10/11 04:25:16;;;;;;;76.22;32.83;;;12.50;99.90;;;;;;2103529;28;20027;-68
2021/10/11 04:26:16;;;;;;;81.40;32.20;;;12.50;99.90;;;;;;2100784;28;20017;-68
2021/10/11 04:27:17;;;;;;;76.40;32.55;;;12.50;99.90;;;;;;2104036;28;20077;-68
2021/10/11 04:28:18;;;;;;;75.00;30.90;;;12.50;99.90;;;;;;2097889;28;20032;-67
2021/10/11 04:29:19;;;;;;;66.72;29.55;;;12.50;99.90;;;;;;2098205;28;20032;-68
2021/10/11 04:30:19;;;;;;;72.03;30.30;;;12.50;99.90;;;;;;2097734;28;20021;-68
2021/10/11 04:31:20;;;;;;;63.78;28.90;;;12.50;99.90;;;;;;2100544;28;20039;-68
2021/10/11 04:32:21;;;;;;;65.15;28.35;;;12.50;99.90;;;;;;2105605;28;20020;-67
2021/10/11 04:33:23;;;;;;;67.93;29.30;;;12.50;99.90;;;;;;2104869;28;20396;-67
2021/10/11 04:34:24;;;;;;;59.95;27.85;;;12.50;99.90;;;;;;2106506;28;20016;-68
2021/10/11 04:35:25;;;;;;;61.33;26.75;;;12.50;99.90;;;;;;2098715;28;20354;-68
2021/10/11 04:36:26;;;;;;;51.90;24.52;;;12.50;99.90;;;;;;2099387;28;20384;-68
2021/10/11 04:37:26;;;;;;;54.30;25.15;;;12.50;99.90;;;;;;2102174;28;20115;-68
2021/10/11 04:38:27;;;;;;;61.75;25.45;;;12.40;99.90;;;;;;2099684;28;20029;-67
2021/10/11 04:39:28;;;;;;;53.65;23.98;;;12.40;99.90;;;;;;2106278;28;20020;-68
2021/10/11 04:40:28;;;;;;;52.28;24.00;;;12.40;99.90;;;;;;2098994;28;20092;-68
2021/10/11 04:41:29;;;;;;;55.05;25.48;;;12.50;99.90;;;;;;2097085;28;20046;-68
2021/10/11 04:42:30;;;;;;;55.80;23.80;;;12.40;99.90;;;;;;2097225;28;20033;-68
2021/10/11 04:43:31;;;;;;;55.60;23.38;;;12.50;99.90;;;;;;2097642;28;20024;-68
2021/10/11 04:44:31;;;;;;;46.38;21.60;;;12.40;99.90;;;;;;2098117;28;20690;-67
2021/10/11 04:45:33;;;;;;;48.88;22.08;;;12.50;99.90;;;;;;2097652;28;20024;-68
2021/10/11 04:46:34;;;;;;;46.97;22.48;;;12.50;99.90;;;;;;2103512;28;20048;-68
2021/10/11 04:47:34;;;;;;;51.13;21.95;;;12.50;99.90;;;;;;2106059;28;20047;-67
2021/10/11 04:48:35;;;;;;;47.10;20.63;;;12.50;99.90;;;;;;2104961;28;20019;-67
2021/10/11 04:49:36;;;;;;;45.55;21.15;;;12.50;99.90;;;;;;2105880;28;20024;-69
2021/10/11 04:50:37;;;;;;;38.33;19.27;;;12.40;99.90;;;;;;2099478;28;20031;-67
2021/10/11 04:51:38;;;;;;;44.95;19.92;;;12.40;99.90;;;;;;2097828;28;20025;-67
2021/10/11 04:52:38;;;;;;;40.78;18.83;;;12.40;99.90;;;;;;2096878;28;20032;-68
2021/10/11 04:53:39;;;;;;;43.63;19.05;;;12.30;99.90;;;;;;2105495;28;20035;-68
2021/10/11 04:54:40;;;;;;;37.58;18.77;;;12.30;99.90;;;;;;2106170;28;20099;-68
2021/10/11 04:55:40;;;;;;;43.53;19.15;;;12.30;99.90;;;;;;2099573;28;20063;-68
2021/10/11 04:56:42;;;;;;;38.65;18.35;;;12.30;99.90;;;;;;2097823;28;20075;-68
2021/10/11 04:57:42;;;;;;;39.63;17.60;;;12.30;99.90;;;;;;2097920;28;20387;-68
2021/10/11 04:58:43;;;;;;;35.05;16.73;;;12.30;99.90;;;;;;2097484;28;20025;-68
2021/10/11 04:59:44;;;;;;;34.78;17.55;;;12.30;99.90;;;;;;2097702;28;20033;-68
2021/10/11 05:00:44;;;;;;;38.65;17.10;;;12.30;99.90;;;;;;2097418;28;20522;-68
2021/10/11 05:01:45;;;;;;;36.78;15.85;;;12.30;99.90;;;;;;2096361;28;20080;-68
2021/10/11 05:02:46;;;;;;;38.33;16.17;;;12.20;99.90;;;;;;2101753;28;20063;-68
2021/10/11 05:03:47;;;;;;;35.20;15.65;;;12.20;99.90;;;;;;2104557;28;20028;-68
2021/10/11 05:04:48;;;;;;;32.72;15.20;;;12.20;99.90;;;;;;2097548;28;20069;-68
2021/10/11 05:05:48;;;;;;;34.05;15.32;;;12.10;99.90;;;;;;2097345;28;20017;-68
2021/10/11 05:06:49;;;;;;;31.73;14.57;;;12.10;99.90;;;;;;2100207;28;20066;-68
2021/10/11 05:07:49;;;;;;;35.50;14.77;;;12.10;99.90;;;;;;2100963;28;20095;-68